Time;durP1;ratioP1;P1;durP2;ratioP2;P2;SDS_P1;SDS_P2;PMS_P1;PMS_P2;Temp;Humidity;BMP_temperature;BMP_pressure;BME280_temperature;BME280_humidity;BME280_pressure;Samples;Min_cycle;Max_cycle;Signal;HPM_P1;HPM_P2
2022/04/19 00:00:32;;;;;;;0.30;0.30;;;;;;;22.62;17.71;101314.63;5011850;28;20148;-80
2022/04/19 00:02:58;;;;;;;0.43;0.43;;;;;;;22.63;17.75;101321.75;5012680;28;20057;-80
2022/04/19 00:05:23;;;;;;;0.55;0.40;;;;;;;;;;5012031;28;20033;-79
2022/04/19 00:07:48;;;;;;;1.23;0.50;;;;;;;;;;5012732;28;20453;-80
2022/04/19 00:10:13;;;;;;;1.10;0.50;;;;;;;22.63;17.49;101315.47;5013977;28;20317;-80
2022/04/19 00:12:39;;;;;;;0.40;0.40;;;;;;;22.62;17.68;101320.09;5011937;28;20373;-79
2022/04/19 00:15:06;;;;;;;1.75;0.30;;;;;;;22.63;17.57;101318.22;5013981;28;20449;-79
2022/04/19 00:17:31;;;;;;;0.40;0.40;;;;;;;22.62;17.62;101320.09;4998978;28;20041;-79
2022/04/19 00:19:56;;;;;;;0.32;0.32;;;;;;;22.63;17.65;101316.28;5016134;28;20045;-79
2022/04/19 00:22:22;;;;;;;0.77;0.40;;;;;;;22.60;17.57;101319.50;5015056;28;20026;-79
2022/04/19 00:24:47;;;;;;;0.30;0.30;;;;;;;22.61;17.45;101315.72;5016425;28;20026;-79
2022/04/19 00:27:13;;;;;;;0.85;0.57;;;;;;;22.61;17.44;101318.44;5016382;28;20092;-79
2022/04/19 00:29:41;;;;;;;0.35;0.35;;;;;;;22.63;17.37;101318.22;5016070;28;20503;-79
2022/04/19 00:32:08;;;;;;;0.30;0.30;;;;;;;22.59;17.35;101320.56;5016289;28;20033;-79
2022/04/19 00:34:33;;;;;;;0.40;0.40;;;;;;;22.61;17.27;101323.91;5016253;28;20099;-79
2022/04/19 00:37:01;;;;;;;0.40;0.40;;;;;;;22.62;17.46;101325.53;5014681;28;20477;-80
2022/04/19 00:39:27;;;;;;;0.47;0.47;;;;;;;22.59;17.36;101328.75;5016305;28;20088;-80
2022/04/19 00:41:52;;;;;;;0.63;0.30;;;;;;;22.60;17.41;101327.69;5007668;28;218443;-80
2022/04/19 00:44:17;;;;;;;0.30;0.30;;;;;;;22.61;17.45;101337.50;5031688;28;20049;-80
2022/04/19 00:46:43;;;;;;;0.40;0.40;;;;;;;22.62;17.13;101330.16;5019426;28;20037;-79
2022/04/19 00:49:08;;;;;;;0.40;0.40;;;;;;;22.62;17.25;101330.16;5036745;28;20408;-79
2022/04/19 00:51:34;;;;;;;0.30;0.30;;;;;;;22.62;17.09;101336.44;5036836;28;20037;-80
2022/04/19 00:53:59;;;;;;;0.43;0.40;;;;;;;22.61;17.23;101326.63;5035763;28;20045;-79
2022/04/19 00:56:25;;;;;;;0.50;0.40;;;;;;;22.62;17.17;101330.16;5035747;28;20018;-79
2022/04/19 00:58:50;;;;;;;0.45;0.30;;;;;;;22.58;17.36;101329.81;5035617;28;20021;-80
2022/04/19 01:01:16;;;;;;;0.40;0.40;;;;;;;22.61;17.25;101326.63;5052036;28;20127;-80
2022/04/19 01:03:42;;;;;;;0.20;0.20;;;;;;;22.59;17.30;101326.00;5036716;28;20037;-79
2022/04/19 01:06:08;;;;;;;0.65;0.40;;;;;;;22.62;17.32;101328.25;5036774;28;20029;-79
2022/04/19 01:08:34;;;;;;;0.35;0.30;;;;;;;22.61;17.31;101333.94;5052171;28;20030;-79
2022/04/19 01:13:43;;;;;;;0.30;0.30;;;;;;;22.62;17.20;101341.88;5036412;28;20091;-79
2022/04/19 01:16:09;;;;;;;0.30;0.30;;;;;;;22.59;17.11;101336.09;5035173;28;20041;-79
2022/04/19 01:18:34;;;;;;;1.05;0.40;;;;;;;22.60;17.08;101332.31;5051917;28;20072;-79
2022/04/19 01:21:00;;;;;;;0.30;0.30;;;;;;;22.59;17.15;101328.75;5034880;28;20025;-79
2022/04/19 01:23:26;;;;;;;0.30;0.30;;;;;;;22.60;17.10;101332.31;5036204;28;20032;-79
2022/04/19 01:25:51;;;;;;;0.40;0.40;;;;;;;22.60;17.05;101333.13;5036017;28;20026;-79
2022/04/19 01:28:19;;;;;;;0.40;0.40;;;;;;;22.59;17.08;101341.53;5035984;28;20026;-79
2022/04/19 01:30:45;;;;;;;0.40;0.40;;;;;;;22.59;16.87;101334.19;5036321;28;20029;-79
2022/04/19 01:33:10;;;;;;;0.30;0.30;;;;;;;22.58;16.91;101338.00;5051518;28;20060;-79
2022/04/19 01:35:36;;;;;;;0.40;0.40;;;;;;;22.60;16.91;101337.75;5035768;28;20026;-79
2022/04/19 01:38:01;;;;;;;0.40;0.40;;;;;;;22.59;16.75;101331.47;5035743;28;20025;-79
2022/04/19 01:40:27;;;;;;;0.60;0.50;;;;;;;22.61;16.94;101333.94;5036169;28;20034;-79
2022/04/19 01:42:53;;;;;;;0.30;0.30;;;;;;;22.60;16.83;101337.75;5035703;28;20518;-80
2022/04/19 01:45:26;;;;;;;0.93;0.40;;;;;;;22.59;17.01;101336.91;5051293;28;20022;-80
2022/04/19 01:47:52;;;;;;;0.30;0.30;;;;;;;22.58;16.89;101339.91;5025366;28;20018;-80
2022/04/19 01:50:18;;;;;;;0.40;0.40;;;;;;;22.58;16.78;101343.44;5016111;28;20473;-80
2022/04/19 01:52:44;;;;;;;0.40;0.40;;;;;;;22.57;16.93;101336.34;5015914;28;20088;-80
2022/04/19 01:55:13;;;;;;;0.38;0.30;;;;;;;22.59;16.91;101336.09;5016130;28;20048;-80
2022/04/19 01:57:45;;;;;;;0.30;0.30;;;;;;;22.56;16.99;101336.56;5014834;28;20032;-79
2022/04/19 02:00:12;;;;;;;0.40;0.40;;;;;;;22.58;16.92;101342.63;5016085;28;20104;-79
2022/04/19 02:02:37;;;;;;;0.30;0.30;;;;;;;22.57;16.97;101344.50;4998491;28;20030;-79
2022/04/19 02:05:03;;;;;;;0.40;0.40;;;;;;;22.57;16.92;101339.06;5015733;28;20034;-79
2022/04/19 02:07:29;;;;;;;0.43;0.38;;;;;;;22.58;16.78;101346.16;5015643;28;20033;-81
2022/04/19 02:09:54;;;;;;;0.40;0.40;;;;;;;22.59;16.98;101345.09;5015313;28;20025;-80
2022/04/19 02:12:20;;;;;;;0.30;0.30;;;;;;;22.57;16.71;101339.06;5015390;28;20033;-79
2022/04/19 02:14:45;;;;;;;0.30;0.30;;;;;;;22.59;16.77;101342.34;5015548;28;20041;-79
2022/04/19 02:17:11;;;;;;;0.40;0.30;;;;;;;22.58;16.75;101342.63;5015583;28;20029;-79
2022/04/19 02:19:36;;;;;;;0.38;0.38;;;;;;;22.58;16.68;101345.34;5015270;28;20465;-79
2022/04/19 02:22:05;;;;;;;0.60;0.40;;;;;;;22.56;16.51;101348.31;5015699;28;20030;-79
2022/04/19 02:24:30;;;;;;;0.30;0.30;;;;;;;22.58;16.69;101351.63;4997941;28;20026;-79
2022/04/19 02:26:57;;;;;;;0.30;0.30;;;;;;;22.59;16.60;101350.53;5015231;28;20103;-79
2022/04/19 02:29:25;;;;;;;0.50;0.43;;;;;;;22.55;16.68;101345.84;5014273;28;20041;-79
2022/04/19 02:31:50;;;;;;;0.30;0.30;;;;;;;22.58;16.84;101357.06;5014977;28;20037;-79
2022/04/19 02:34:18;;;;;;;0.30;0.30;;;;;;;22.59;16.76;101347.00;5014958;28;20038;-79
2022/04/19 02:36:43;;;;;;;0.30;0.30;;;;;;;22.58;16.72;101350.81;5015257;28;20026;-79
2022/04/19 02:39:09;;;;;;;0.73;0.43;;;;;;;22.56;16.75;101359.22;5014935;28;20104;-79
2022/04/19 02:41:34;;;;;;;0.30;0.30;;;;;;;22.58;16.74;101364.44;5015010;28;20076;-79
2022/04/19 02:44:00;;;;;;;0.30;0.30;;;;;;;22.58;16.88;101362.53;5014562;28;20060;-79
2022/04/19 02:46:26;;;;;;;0.40;0.40;;;;;;;22.57;16.75;101355.41;5015212;28;20049;-79
2022/04/19 02:48:51;;;;;;;0.22;0.20;;;;;;;22.58;16.67;101362.53;5015936;28;20033;-79
2022/04/19 02:51:18;;;;;;;0.38;0.38;;;;;;;22.58;16.72;101362.53;5033720;28;20025;-79
2022/04/19 02:53:43;;;;;;;0.30;0.28;;;;;;;22.57;16.56;101369.03;5034577;28;20029;-79
2022/04/19 02:56:09;;;;;;;0.30;0.30;;;;;;;22.56;16.61;101364.66;5034238;28;20033;-79
2022/04/19 02:58:34;;;;;;;0.32;0.32;;;;;;;22.56;16.58;101370.13;5034242;28;20021;-79
2022/04/19 03:00:59;;;;;;;0.50;0.45;;;;;;;22.55;16.53;101367.63;5034547;28;20029;-79
2022/04/19 03:03:25;;;;;;;0.32;0.32;;;;;;;22.55;16.42;101367.63;5034430;28;20029;-79
2022/04/19 03:05:52;;;;;;;0.50;0.50;;;;;;;22.56;16.44;101374.72;5034461;28;20033;-80
2022/04/19 03:08:19;;;;;;;0.85;0.50;;;;;;;22.37;16.61;101382.25;5049807;28;20048;-79
2022/04/19 03:10:44;;;;;;;1.85;0.30;;;;;;;22.56;16.48;101380.16;5034863;28;20029;-80
2022/04/19 03:13:10;;;;;;;0.40;0.40;;;;;;;22.63;16.70;101369.97;5033438;28;20108;-80
2022/04/19 03:15:36;;;;;;;0.43;0.43;;;;;;;22.68;16.55;101373.59;5034115;28;20033;-80
2022/04/19 03:18:02;;;;;;;0.52;0.40;;;;;;;22.72;16.58;101371.22;5034728;28;20029;-80
2022/04/19 03:20:27;;;;;;;0.35;0.35;;;;;;;22.77;16.51;101379.47;5034764;28;20021;-80
2022/04/19 03:28:21;;;;;;;0.22;0.22;;;;;;;22.92;16.50;101387.13;5033992;28;20507;-80
2022/04/19 03:30:46;;;;;;;0.30;0.30;;;;;;;22.94;16.26;101387.69;5033913;28;20022;-80
2022/04/19 03:33:12;;;;;;;0.30;0.30;;;;;;;22.99;16.48;101395.09;5034295;28;20029;-80
2022/04/19 03:35:38;;;;;;;0.40;0.40;;;;;;;23.00;16.32;101391.31;5033909;28;20476;-80
2022/04/19 03:38:07;;;;;;;0.32;0.32;;;;;;;23.05;16.26;101396.84;5034147;28;20025;-79
2022/04/19 03:40:32;;;;;;;0.40;0.32;;;;;;;23.08;16.54;101398.28;5034317;28;20045;-80
2022/04/19 03:42:57;;;;;;;0.45;0.40;;;;;;;23.01;16.50;101399.25;5049004;28;20041;-80
2022/04/19 03:45:23;;;;;;;0.40;0.40;;;;;;;23.06;16.79;101398.56;5033897;28;20029;-80
2022/04/19 03:47:49;;;;;;;0.50;0.45;;;;;;;22.48;17.10;101406.72;5024995;28;20026;-80
2022/04/19 03:50:14;;;;;;;1.30;0.40;;;;;;;22.80;16.94;101408.13;5014207;28;20487;-81
2022/04/19 03:52:40;;;;;;;0.45;0.40;;;;;;;22.95;16.62;101400.22;5014233;28;20053;-81
2022/04/19 03:55:06;;;;;;;0.57;0.52;;;;;;;23.04;16.57;101396.03;5014252;28;20030;-80
2022/04/19 03:57:31;;;;;;;0.40;0.40;;;;;;;23.34;16.51;101403.09;5014814;28;20025;-80
2022/04/19 03:59:57;;;;;;;0.40;0.40;;;;;;;23.12;16.54;101400.28;5012959;28;20049;-81
2022/04/19 04:02:22;;;;;;;0.40;0.40;;;;;;;23.30;16.54;101401.09;5013257;28;20065;-82
2022/04/19 04:04:48;;;;;;;0.50;0.50;;;;;;;23.44;16.29;101402.44;5014353;28;20054;-79
2022/04/19 04:07:13;;;;;;;1.17;0.40;;;;;;;23.52;16.30;101401.19;5015146;28;20030;-79
2022/04/19 04:09:39;;;;;;;0.40;0.40;;;;;;;23.51;16.44;101400.38;5014424;28;20022;-79
2022/04/19 04:12:12;;;;;;;0.40;0.40;;;;;;;23.71;16.32;101412.66;5014748;28;20445;-79
2022/04/19 04:14:39;;;;;;;0.60;0.50;;;;;;;23.77;15.91;101406.19;5014475;28;20025;-79
2022/04/19 04:17:04;;;;;;;0.68;0.50;;;;;;;23.92;16.14;101408.31;5014041;28;20037;-80
2022/04/19 04:19:29;;;;;;;0.65;0.40;;;;;;;23.90;16.04;101405.03;5014422;28;20029;-79
2022/04/19 04:21:55;;;;;;;0.50;0.50;;;;;;;24.01;15.95;101406.84;5014035;28;20030;-80
2022/04/19 04:24:22;;;;;;;1.42;0.50;;;;;;;23.94;15.99;101411.63;5014148;28;20109;-80
2022/04/19 04:26:47;;;;;;;0.52;0.52;;;;;;;23.93;16.55;101404.53;5014892;28;20022;-79
2022/04/19 04:29:12;;;;;;;0.30;0.30;;;;;;;23.98;16.34;101412.78;5014323;28;20025;-80
2022/04/19 04:31:38;;;;;;;0.50;0.50;;;;;;;23.99;16.45;101420.72;5014596;28;20025;-79
2022/04/19 04:34:04;;;;;;;0.63;0.50;;;;;;;23.99;16.48;101414.41;5012504;28;20034;-79
2022/04/19 04:36:30;;;;;;;0.47;0.47;;;;;;;23.60;16.88;101417.94;5014030;28;20041;-77
2022/04/19 04:38:55;;;;;;;0.32;0.32;;;;;;;23.52;16.98;101425.72;5014224;28;20550;-78
2022/04/19 04:41:21;;;;;;;1.88;0.47;;;;;;;23.71;17.04;101423.56;5013789;28;20476;-79
2022/04/19 04:43:46;;;;;;;0.50;0.40;;;;;;;23.65;17.22;101425.41;5013285;28;20045;-78
2022/04/19 04:51:39;;;;;;;0.50;0.43;;;;;;;24.15;17.11;101432.69;5033436;28;20057;-79
2022/04/19 04:54:05;;;;;;;0.70;0.30;;;;;;;23.93;17.62;101434.56;5033704;28;20464;-79
2022/04/19 04:56:30;;;;;;;2.15;0.50;;;;;;;24.06;17.36;101434.19;5033517;28;20029;-81
2022/04/19 04:58:57;;;;;;;0.60;0.40;;;;;;;24.07;17.39;101432.28;5033689;28;20320;-81
2022/04/19 05:01:22;;;;;;;0.60;0.47;;;;;;;24.08;17.42;101429.31;5035211;28;20427;-81
2022/04/19 05:03:48;;;;;;;1.42;0.50;;;;;;;24.04;17.53;101433.59;5037350;28;20075;-82
2022/04/19 05:06:13;;;;;;;1.48;0.50;;;;;;;24.23;17.67;101436.03;5037413;28;20033;-80
2022/04/19 05:08:38;;;;;;;0.47;0.47;;;;;;;24.38;17.15;101433.50;5037710;28;20087;-80
2022/04/19 05:11:04;;;;;;;0.40;0.40;;;;;;;24.51;17.16;101438.56;5038028;28;20080;-81
2022/04/19 05:13:29;;;;;;;0.40;0.40;;;;;;;24.45;17.56;101433.31;5053440;28;20025;-81
2022/04/19 05:15:58;;;;;;;4.00;0.47;;;;;;;24.54;17.34;101435.38;5052898;28;20025;-80
2022/04/19 05:18:24;;;;;;;0.40;0.40;;;;;;;24.70;17.54;101443.75;5053440;28;20049;-81
2022/04/19 05:20:49;;;;;;;0.45;0.45;;;;;;;24.70;17.51;101435.53;5037637;28;20099;-81
2022/04/19 05:23:15;;;;;;;0.65;0.30;;;;;;;24.68;17.76;101445.88;5037773;28;20452;-82
2022/04/19 05:25:40;;;;;;;0.40;0.40;;;;;;;24.70;17.79;101433.63;5037668;28;20452;-82
2022/04/19 05:28:06;;;;;;;2.05;0.47;;;;;;;24.69;17.69;101444.81;5038120;28;20025;-82
2022/04/19 05:30:31;;;;;;;0.40;0.40;;;;;;;24.64;18.13;101450.22;5037469;28;20452;-80
2022/04/19 05:32:57;;;;;;;0.75;0.30;;;;;;;24.72;17.87;101438.84;5036923;28;20062;-81
2022/04/19 05:35:22;;;;;;;0.45;0.45;;;;;;;24.69;17.75;101453.81;5037419;28;20022;-81
2022/04/19 05:37:48;;;;;;;0.77;0.43;;;;;;;24.62;18.12;101452.41;5037490;28;20021;-79
2022/04/19 05:40:14;;;;;;;1.00;0.40;;;;;;;24.43;18.17;101452.69;5037402;28;20091;-82
2022/04/19 05:42:40;;;;;;;0.47;0.47;;;;;;;24.43;18.44;101447.22;5037992;28;20191;-79
2022/04/19 05:45:06;;;;;;;1.02;0.60;;;;;;;24.26;18.58;101450.00;5051940;28;20547;-80
2022/04/19 05:47:31;;;;;;;1.95;0.60;;;;;;;24.33;18.54;101449.81;5031558;28;20022;-76
2022/04/19 05:49:58;;;;;;;2.47;0.45;;;;;;;24.53;18.47;101447.34;5016923;28;20033;-78
2022/04/19 05:52:24;;;;;;;0.45;0.40;;;;;;;24.63;18.30;101454.03;5020040;28;20025;-81
2022/04/19 05:54:49;;;;;;;0.80;0.50;;;;;;;24.68;18.38;101451.34;5018727;28;20373;-82
2022/04/19 05:57:15;;;;;;;0.90;0.50;;;;;;;24.75;18.69;101446.53;5017127;28;20030;-79
2022/04/19 05:59:40;;;;;;;1.30;0.88;;;;;;;24.80;18.35;101446.59;5018471;28;20076;-79
2022/04/19 06:04:53;;;;;;;2.20;1.58;;;;;;;24.73;18.24;101457.72;5015323;28;20044;-76
2022/04/19 06:07:25;;;;;;;1.95;1.35;;;;;;;24.68;18.57;101454.09;5017697;28;20038;-77
2022/04/19 06:09:51;;;;;;;2.00;1.15;;;;;;;24.72;18.53;101461.53;5016238;28;20080;-77
2022/04/19 06:12:19;;;;;;;1.75;1.25;;;;;;;24.81;18.47;101453.69;5015799;28;20030;-77
2022/04/19 06:14:45;;;;;;;1.90;1.17;;;;;;;24.82;18.32;101451.78;5016552;28;20025;-79
2022/04/19 06:17:17;;;;;;;3.22;1.27;;;;;;;24.83;18.35;101470.66;5017457;28;20025;-78
2022/04/19 06:19:43;;;;;;;2.75;1.35;;;;;;;24.87;18.47;101465.50;5031527;28;20029;-77
2022/04/19 06:22:08;;;;;;;2.35;1.38;;;;;;;24.77;18.66;101463.50;5016089;28;20048;-78
2022/04/19 06:24:34;;;;;;;3.83;1.20;;;;;;;24.88;18.40;101459.78;5015246;28;20448;-77
2022/04/19 06:27:00;;;;;;;2.85;1.10;;;;;;;24.90;18.69;101465.81;5015216;28;20393;-78
2022/04/19 06:29:25;;;;;;;3.38;1.00;;;;;;;24.88;18.53;101459.78;5015951;28;20033;-78
2022/04/19 06:31:51;;;;;;;2.22;1.00;;;;;;;24.93;18.30;101468.03;5013992;28;20416;-77
2022/04/19 06:34:19;;;;;;;1.33;0.75;;;;;;;24.95;18.35;101465.03;5015533;28;20353;-78
2022/04/19 06:36:44;;;;;;;1.58;1.00;;;;;;;24.95;18.19;101459.56;5015573;28;20026;-79
2022/04/19 06:39:10;;;;;;;1.15;0.80;;;;;;;24.99;18.17;101465.34;5014271;28;20033;-79
2022/04/19 06:41:37;;;;;;;3.35;0.93;;;;;;;24.99;18.29;101466.19;5015403;28;20496;-78
2022/04/19 06:44:03;;;;;;;2.22;0.70;;;;;;;25.04;18.09;101473.59;5015865;28;20105;-78
2022/04/19 06:46:29;;;;;;;0.63;0.55;;;;;;;25.08;18.03;101477.50;5013975;28;20441;-78
2022/04/19 06:48:54;;;;;;;0.80;0.70;;;;;;;25.00;17.97;101477.94;5030555;28;20030;-77
2022/04/19 06:51:23;;;;;;;1.10;0.60;;;;;;;25.09;18.18;101477.22;5034604;28;20104;-78
2022/04/19 06:53:49;;;;;;;0.52;0.40;;;;;;;25.09;18.20;101479.97;5035356;28;20083;-79
2022/04/19 06:56:17;;;;;;;3.55;0.60;;;;;;;25.06;18.12;101483.22;5035081;28;20029;-78
2022/04/19 06:58:44;;;;;;;0.98;0.70;;;;;;;25.01;17.81;101482.31;5034304;28;20337;-82
2022/04/19 07:01:12;;;;;;;0.88;0.55;;;;;;;25.11;17.56;101485.16;5036721;28;20345;-79
2022/04/19 07:03:37;;;;;;;0.70;0.50;;;;;;;25.14;17.61;101481.91;5051423;28;20075;-77
2022/04/19 07:06:03;;;;;;;1.05;0.73;;;;;;;25.17;17.88;101484.13;5034548;28;20380;-77
2022/04/19 07:08:30;;;;;;;4.10;1.48;;;;;;;25.19;17.70;101481.97;5033432;28;20080;-76
2022/04/19 07:10:56;;;;;;;3.30;1.70;;;;;;;25.21;17.54;101484.44;5034583;28;20025;-78
2022/04/19 07:13:22;;;;;;;4.20;1.83;;;;;;;25.23;17.53;101488.56;5034499;28;20079;-78
2022/04/19 07:15:48;;;;;;;5.57;1.88;;;;;;;25.24;17.50;101487.47;5032951;28;20112;-75
2022/04/19 07:18:14;;;;;;;2.63;1.50;;;;;;;25.29;17.74;101490.28;5034036;28;20361;-77
2022/04/19 07:28:52;;;;;;;1.60;1.00;;;;;;;25.28;17.71;101488.66;5034481;28;20272;-78
2022/04/19 07:31:17;;;;;;;2.40;1.27;;;;;;;25.37;18.00;101494.47;5034463;28;20461;-78
2022/04/19 07:33:43;;;;;;;7.18;1.33;;;;;;;25.34;17.84;101495.00;5034117;28;20080;-78
2022/04/19 07:36:09;;;;;;;1.90;1.15;;;;;;;25.39;17.79;101481.34;5034327;28;20031;-79
2022/04/19 07:38:34;;;;;;;7.38;2.83;;;;;;;25.38;17.60;101487.09;5034260;28;20033;-78
2022/04/19 07:41:00;;;;;;;5.45;2.83;;;;;;;25.30;17.68;101483.75;5034443;28;20380;-79
2022/04/19 07:43:25;;;;;;;6.53;3.25;;;;;;;24.44;18.61;101481.66;5034151;28;20144;-78
2022/04/19 07:45:51;;;;;;;7.97;3.17;;;;;;;24.86;18.12;101486.56;5033431;28;20034;-79
2022/04/19 07:48:17;;;;;;;7.45;3.30;;;;;;;25.16;17.75;101489.84;5022616;28;20030;-77
2022/04/19 07:50:43;;;;;;;7.75;3.17;;;;;;;25.39;17.79;101485.97;5012256;28;20469;-77
2022/04/19 07:53:09;;;;;;;4.53;2.45;;;;;;;25.16;17.88;101476.19;5014581;28;20084;-75
2022/04/19 07:55:34;;;;;;;4.15;2.00;;;;;;;25.16;18.07;101474.25;5012762;28;20384;-76
2022/04/19 07:58:00;;;;;;;4.47;1.48;;;;;;;25.44;17.67;101484.13;5014518;28;20026;-76
2022/04/19 08:00:27;;;;;;;2.42;1.33;;;;;;;25.57;17.46;101482.84;5014016;28;20022;-76
2022/04/19 08:02:56;;;;;;;3.00;1.30;;;;;;;25.59;17.55;101486.16;5012737;28;20065;-77
2022/04/19 08:05:22;;;;;;;2.28;1.30;;;;;;;25.72;17.50;101489.56;5012362;28;20034;-77
2022/04/19 08:07:49;;;;;;;1.70;0.93;;;;;;;25.84;17.33;101487.44;5014932;28;20029;-77
2022/04/19 08:10:15;;;;;;;1.85;1.00;;;;;;;25.89;17.43;101489.38;5013437;28;20080;-77
2022/04/19 08:12:40;;;;;;;1.65;0.90;;;;;;;25.80;17.09;101497.25;5013118;28;20419;-76
2022/04/19 08:15:06;;;;;;;2.08;0.80;;;;;;;25.55;17.45;101490.50;5013912;28;20026;-79
2022/04/19 08:17:34;;;;;;;1.25;0.82;;;;;;;25.77;17.21;101493.16;5012900;28;20109;-77
2022/04/19 08:20:01;;;;;;;1.40;0.75;;;;;;;25.94;17.26;101493.03;5013517;28;20430;-76
2022/04/19 08:22:26;;;;;;;1.02;0.80;;;;;;;25.97;16.95;101492.47;5013979;28;20029;-77
2022/04/19 08:24:52;;;;;;;2.25;0.90;;;;;;;26.11;16.82;101492.00;5015904;28;20514;-77
2022/04/19 08:27:17;;;;;;;1.17;0.70;;;;;;;26.12;16.73;101499.16;5015379;28;20037;-77
2022/04/19 08:29:43;;;;;;;1.35;0.68;;;;;;;25.85;16.91;101486.34;5013474;28;20394;-75
2022/04/19 08:32:09;;;;;;;0.98;0.60;;;;;;;25.96;16.85;101495.50;5011969;28;20025;-76
2022/04/19 08:34:35;;;;;;;3.75;0.60;;;;;;;25.83;17.12;101496.75;5014276;28;20096;-76
2022/04/19 08:37:02;;;;;;;1.20;0.73;;;;;;;25.97;16.82;101492.47;5000196;28;20032;-75
2022/04/19 08:39:28;;;;;;;1.02;0.57;;;;;;;26.15;16.73;101493.16;5017716;28;20038;-76
2022/04/19 08:41:53;;;;;;;2.47;0.88;;;;;;;26.27;16.64;101495.66;5016909;28;20033;-77
2022/04/19 08:44:19;;;;;;;1.20;0.47;;;;;;;26.46;16.48;101498.75;5017424;28;20025;-77
2022/04/19 08:46:44;;;;;;;1.73;0.50;;;;;;;26.45;16.47;101497.94;5017863;28;20034;-77
2022/04/19 08:49:10;;;;;;;0.47;0.40;;;;;;;26.53;16.21;101504.84;5032396;28;20089;-78
2022/04/19 08:51:36;;;;;;;1.77;0.40;;;;;;;26.65;16.15;101505.47;5037605;28;20033;-76
2022/04/19 08:59:30;;;;;;;1.77;0.50;;;;;;;26.76;16.13;101498.91;5049556;28;20448;-77
2022/04/19 09:01:59;;;;;;;0.80;0.47;;;;;;;26.69;16.29;101497.50;5036894;28;20030;-77
2022/04/19 09:04:25;;;;;;;1.05;0.70;;;;;;;26.81;16.12;101503.59;5036130;28;20033;-77
2022/04/19 09:06:54;;;;;;;0.60;0.40;;;;;;;26.71;16.19;101496.13;5037226;28;20030;-77
2022/04/19 09:09:24;;;;;;;1.23;0.55;;;;;;;26.91;16.19;101494.56;5037254;28;20439;-78
2022/04/19 09:11:53;;;;;;;1.67;0.70;;;;;;;27.05;15.95;101505.84;5038106;28;20048;-78
2022/04/19 09:14:18;;;;;;;2.05;0.80;;;;;;;27.09;15.92;101495.97;5037227;28;20099;-78
2022/04/19 09:16:44;;;;;;;4.53;1.05;;;;;;;27.19;15.78;101500.66;5037311;28;20493;-78
2022/04/19 09:19:10;;;;;;;3.30;0.73;;;;;;;26.81;16.29;101494.53;5037203;28;20099;-77
2022/04/19 09:21:39;;;;;;;1.95;0.65;;;;;;;26.90;16.10;101492.91;5037754;28;20190;-79
2022/04/19 09:24:25;;;;;;;2.88;1.10;;;;;;;27.02;16.02;101495.41;5037711;28;20067;-77
2022/04/19 09:26:51;;;;;;;3.50;1.25;;;;;;;27.26;15.92;101485.56;5037286;28;20120;-79
2022/04/19 09:29:23;;;;;;;1.13;0.70;;;;;;;27.50;15.70;101491.34;5038847;28;20032;-77
2022/04/19 09:31:50;;;;;;;1.90;0.85;;;;;;;27.57;15.62;101484.78;5038239;28;20448;-77
2022/04/19 09:34:28;;;;;;;1.10;0.60;;;;;;;27.47;15.66;101480.91;5036034;28;20053;-76
2022/04/19 09:37:11;;;;;;;1.02;0.65;;;;;;;27.56;15.68;101483.94;5039425;28;20108;-78
2022/04/19 09:39:40;;;;;;;1.33;0.70;;;;;;;27.49;15.78;101488.88;5036296;28;20033;-78
2022/04/19 09:42:07;;;;;;;0.73;0.60;;;;;;;27.38;15.82;101493.53;5035818;28;20037;-78
2022/04/19 09:44:49;;;;;;;1.10;0.80;;;;;;;27.40;16.03;101491.34;5037970;28;20025;-79
2022/04/19 09:47:15;;;;;;;4.55;1.33;;;;;;;27.35;16.05;101494.09;5053829;28;20101;-78
2022/04/19 09:49:40;;;;;;;4.47;1.50;;;;;;;27.24;16.23;101492.41;5020563;28;20491;-78
2022/04/19 09:52:06;;;;;;;7.80;6.75;;;;;;;27.11;16.24;101494.59;5020196;28;20026;-77
2022/04/19 09:54:31;;;;;;;5.90;4.00;;;;;;;26.98;16.51;101493.19;5019809;28;20017;-77
2022/04/19 09:56:56;;;;;;;6.18;4.57;;;;;;;27.07;16.17;101493.47;5018044;28;20045;-77
2022/04/19 09:59:24;;;;;;;4.63;3.65;;;;;;;27.02;16.27;101487.19;5017381;28;20033;-77
2022/04/19 10:10:02;;;;;;;1.02;0.80;;;;;;;27.12;16.27;101490.75;5016227;28;20030;-77
2022/04/19 10:12:28;;;;;;;1.10;0.80;;;;;;;26.97;16.30;101493.47;5016392;28;20022;-77
2022/04/19 10:14:55;;;;;;;1.13;0.80;;;;;;;26.99;16.56;101485.78;5015972;28;20026;-77
2022/04/19 10:17:20;;;;;;;1.10;0.70;;;;;;;26.96;16.31;101491.84;4998897;28;20386;-77
2022/04/19 10:19:49;;;;;;;1.80;0.75;;;;;;;26.90;16.38;101488.22;5016001;28;20041;-77
2022/04/19 10:22:14;;;;;;;0.40;0.40;;;;;;;26.88;16.40;101484.13;5016268;28;20022;-79
2022/04/19 10:24:46;;;;;;;2.15;0.50;;;;;;;26.91;16.50;101486.34;5013756;28;20479;-77
2022/04/19 10:27:12;;;;;;;0.80;0.50;;;;;;;26.84;16.50;101489.34;5013723;28;20024;-77
2022/04/19 10:29:37;;;;;;;2.67;0.52;;;;;;;26.84;16.54;101494.81;5015547;28;20029;-77
2022/04/19 10:32:06;;;;;;;0.60;0.40;;;;;;;26.83;16.61;101482.19;5014420;28;20101;-77
2022/04/19 10:34:35;;;;;;;0.93;0.45;;;;;;;26.77;16.56;101489.59;5016423;28;20030;-78
2022/04/19 10:37:23;;;;;;;0.50;0.40;;;;;;;26.83;16.52;101482.19;5016581;28;20075;-78
2022/04/19 10:39:49;;;;;;;0.30;0.30;;;;;;;26.73;16.37;101477.53;5015684;28;20097;-78
2022/04/19 10:42:33;;;;;;;0.80;0.40;;;;;;;26.77;16.63;101481.34;5016511;28;20054;-78
2022/04/19 10:45:25;;;;;;;0.50;0.40;;;;;;;26.79;16.62;101479.16;5015719;28;20105;-77
2022/04/19 10:47:54;;;;;;;0.47;0.47;;;;;;;26.73;16.30;101482.16;5019249;28;20053;-78
2022/04/19 10:50:35;;;;;;;1.33;0.73;;;;;;;26.76;16.35;101479.69;5035156;28;20073;-76
2022/04/19 10:53:04;;;;;;;0.82;0.50;;;;;;;26.70;16.42;101475.31;5035171;28;20053;-77
2022/04/19 10:55:34;;;;;;;1.15;0.70;;;;;;;26.69;16.68;101481.06;5035658;28;20495;-78
2022/04/19 11:00:55;;;;;;;3.17;0.93;;;;;;;26.72;16.65;101475.03;5035425;28;20424;-77
2022/04/19 11:03:29;;;;;;;0.90;0.68;;;;;;;26.66;16.74;101476.94;5035486;28;20025;-77
2022/04/19 11:05:56;;;;;;;2.05;1.10;;;;;;;26.66;16.65;101465.97;5035877;28;20030;-79
2022/04/19 11:08:24;;;;;;;1.85;0.70;;;;;;;26.66;16.42;101471.44;5035001;28;20109;-78
2022/04/19 11:10:50;;;;;;;1.27;0.65;;;;;;;26.66;16.59;101470.63;5035649;28;20032;-77
2022/04/19 11:13:16;;;;;;;1.00;0.63;;;;;;;26.64;16.46;101470.91;5034853;28;20103;-77
2022/04/19 11:15:42;;;;;;;0.50;0.40;;;;;;;26.63;16.60;101477.50;5035577;28;20064;-77
2022/04/19 11:18:26;;;;;;;0.73;0.60;;;;;;;26.63;16.32;101468.41;5035022;28;20060;-77
2022/04/19 11:20:57;;;;;;;1.30;0.60;;;;;;;26.54;16.27;101468.91;5036669;28;20037;-78
2022/04/19 11:23:26;;;;;;;1.17;0.50;;;;;;;26.55;16.47;101467.00;5049497;28;20025;-78
2022/04/19 11:25:55;;;;;;;0.60;0.40;;;;;;;26.54;16.34;101473.56;5034637;28;20132;-77
2022/04/19 11:28:27;;;;;;;0.50;0.50;;;;;;;26.52;16.60;101467.53;5034022;28;20115;-77
2022/04/19 11:30:55;;;;;;;0.88;0.57;;;;;;;26.49;16.62;101468.91;5033736;28;20025;-80
2022/04/19 11:33:32;;;;;;;1.25;0.50;;;;;;;26.52;16.58;101462.88;5037186;28;20029;-77
2022/04/19 11:36:00;;;;;;;1.58;0.70;;;;;;;26.46;16.56;101474.94;5033326;28;20049;-78
2022/04/19 11:38:26;;;;;;;12.55;5.18;;;;;;;26.46;16.81;101471.34;5034255;28;20472;-77
2022/04/19 11:49:04;;;;;;;9.20;4.15;;;;;;;26.47;16.76;101462.03;5020971;28;20121;-77
2022/04/19 11:51:32;;;;;;;9.73;3.67;;;;;;;26.46;16.49;101463.97;5014080;28;20026;-76
2022/04/19 11:53:57;;;;;;;17.05;6.90;;;;;;;26.43;16.71;101468.03;5014220;28;20030;-77
2022/04/19 11:56:23;;;;;;;12.68;4.38;;;;;;;26.48;16.55;101463.69;5014897;28;20400;-77
2022/04/19 11:58:52;;;;;;;12.82;4.63;;;;;;;26.46;16.50;101458.47;5014247;28;20026;-78
2022/04/19 12:01:17;;;;;;;6.70;3.10;;;;;;;26.45;16.61;101461.50;5012816;28;20029;-78
2022/04/19 12:03:43;;;;;;;8.00;2.50;;;;;;;26.43;16.63;101459.81;5014990;28;20030;-78
2022/04/19 12:06:11;;;;;;;4.85;2.35;;;;;;;26.47;16.78;101457.38;5014215;28;20030;-78
2022/04/19 12:08:49;;;;;;;2.67;1.55;;;;;;;26.48;16.51;101444.50;5014586;28;20057;-78
2022/04/19 12:11:16;;;;;;;2.95;1.45;;;;;;;26.47;16.67;101454.63;5013381;28;20511;-78
2022/04/19 12:13:43;;;;;;;3.65;1.55;;;;;;;26.46;16.53;101454.91;5014645;28;20048;-78